createdAt,value
2023-01-05T00:01:51.315Z,99693.97
2023-01-05T00:04:18.541Z,99694.22
2023-01-05T00:06:45.588Z,99721.66
2023-01-05T00:09:15.108Z,99750.56
2023-01-05T00:12:01.043Z,99761.47
2023-01-05T00:14:50.723Z,99757.06
2023-01-05T00:17:38.918Z,99778.59
2023-01-05T00:20:32.195Z,99786.31
2023-01-05T00:22:59.054Z,99793.94
2023-01-05T00:25:31.416Z,99794.81
2023-01-05T00:27:58.985Z,99820.00
2023-01-05T00:30:28.810Z,99820.16
2023-01-05T00:32:55.560Z,99834.66
2023-01-05T00:35:23.192Z,99850.75
2023-01-05T00:37:50.745Z,99850.75
2023-01-05T00:40:21.977Z,99867.88
2023-01-05T00:42:49.032Z,99879.16
2023-01-05T00:45:17.945Z,99887.28
2023-01-05T00:47:45.130Z,99909.78
2023-01-05T00:50:16.009Z,99919.03
2023-01-05T00:52:43.771Z,99954.78
2023-01-05T00:55:10.556Z,99960.09
2023-01-05T00:57:37.400Z,99954.78
2023-01-05T01:00:06.346Z,99956.63
2023-01-05T01:02:33.224Z,99975.44
2023-01-05T01:05:00.124Z,100001.66
2023-01-05T01:07:27.022Z,100002.25
2023-01-05T01:09:53.861Z,100015.91
2023-01-05T01:12:21.134Z,100028.47
2023-01-05T01:14:49.257Z,100036.69
2023-01-05T01:17:19.206Z,100041.81
2023-01-05T01:19:46.836Z,100040.31
2023-01-05T01:22:14.661Z,100050.50
2023-01-05T01:24:45.277Z,100017.28
2023-01-05T01:27:12.440Z,100038.81
2023-01-05T01:29:39.153Z,100047.69
2023-01-05T01:32:05.872Z,100047.69
2023-01-05T01:34:32.575Z,100060.09
2023-01-05T01:37:00.341Z,100050.06
2023-01-05T01:39:27.273Z,100068.75
2023-01-05T01:41:53.914Z,100078.09
2023-01-05T01:44:51.478Z,100085.84
2023-01-05T01:47:28.162Z,100095.81
2023-01-05T01:49:57.407Z,100096.56
2023-01-05T01:52:26.986Z,100097.19
2023-01-05T01:54:54.877Z,100100.75
2023-01-05T01:57:23.073Z,100118.06
2023-01-05T01:59:50.551Z,100128.88
2023-01-05T02:02:17.664Z,100117.22
2023-01-05T02:04:45.776Z,100139.19
2023-01-05T02:07:15.455Z,100131.53
2023-01-05T02:09:43.172Z,100131.31
2023-01-05T02:12:27.430Z,100125.56
2023-01-05T02:15:10.435Z,100131.97
2023-01-05T02:18:05.438Z,100143.84
2023-01-05T02:20:57.105Z,100142.88
2023-01-05T02:23:49.064Z,100136.72
2023-01-05T02:26:54.498Z,100158.81
2023-01-05T02:29:31.703Z,100164.09
2023-01-05T02:32:11.685Z,100167.25
2023-01-05T02:34:41.198Z,100166.78
2023-01-05T02:37:11.571Z,100180.00
2023-01-05T02:39:54.468Z,100187.16
2023-01-05T02:42:26.758Z,100194.28
2023-01-05T02:44:53.471Z,100200.44
2023-01-05T02:47:27.649Z,100194.94
2023-01-05T02:50:10.042Z,100210.28
2023-01-05T02:53:10.415Z,100210.41
2023-01-05T02:55:55.665Z,100213.72
2023-01-05T02:58:48.721Z,100224.69
2023-01-05T03:01:31.339Z,100223.56
2023-01-05T03:04:04.943Z,100238.97
2023-01-05T03:06:46.965Z,100237.69
2023-01-05T03:09:17.599Z,100249.13
2023-01-05T03:12:09.281Z,100242.75
2023-01-05T03:14:51.178Z,100260.06
2023-01-05T03:17:25.689Z,100257.25
2023-01-05T03:19:54.678Z,100263.63
2023-01-05T03:22:44.628Z,100262.56
2023-01-05T03:25:32.464Z,100269.69
2023-01-05T03:28:19.768Z,100267.75
2023-01-05T03:31:29.996Z,100286.03
2023-01-05T03:34:42.762Z,100286.69
2023-01-05T03:37:24.221Z,100277.81
2023-01-05T03:39:50.907Z,100282.25
2023-01-05T03:42:18.349Z,100269.56
2023-01-05T03:44:48.719Z,100290.38
2023-01-05T03:47:15.606Z,100303.97
2023-01-05T03:49:42.337Z,100306.59
2023-01-05T03:52:09.044Z,100302.25
2023-01-05T03:54:35.791Z,100322.06
2023-01-05T03:57:02.461Z,100309.41
2023-01-05T03:59:29.239Z,100313.97
2023-01-05T04:01:56.056Z,100330.94
2023-01-05T04:04:22.863Z,100342.06
2023-01-05T04:06:49.653Z,100337.53
2023-01-05T04:09:16.309Z,100339.38
2023-01-05T04:11:42.940Z,100340.13
2023-01-05T04:14:09.667Z,100337.09
2023-01-05T04:16:36.485Z,100348.16
2023-01-05T04:19:03.668Z,100353.78
2023-01-05T04:21:30.397Z,100354.75
2023-01-05T04:23:57.091Z,100371.06
2023-01-05T04:26:23.742Z,100361.13
2023-01-05T04:28:50.396Z,100375.72
2023-01-05T04:31:17.127Z,100370.84
2023-01-05T04:33:45.452Z,100378.31
2023-01-05T04:36:12.209Z,100378.88
2023-01-05T04:38:38.899Z,100387.63
2023-01-05T04:41:05.891Z,100382.31
2023-01-05T04:43:32.537Z,100388.28
2023-01-05T04:45:59.392Z,100374.66
2023-01-05T04:48:26.167Z,100386.47
2023-01-05T04:50:54.824Z,100390.91
2023-01-05T04:53:23.364Z,100391.97
2023-01-05T04:55:51.450Z,100378.00
2023-01-05T04:58:20.428Z,100382.78
2023-01-05T05:00:48.363Z,100395.50
2023-01-05T05:03:15.142Z,100411.41
2023-01-05T05:05:41.896Z,100409.88
2023-01-05T05:08:08.539Z,100389.22
2023-01-05T05:10:35.340Z,100402.19
2023-01-05T05:13:02.046Z,100395.72
2023-01-05T05:15:28.912Z,100401.78
2023-01-05T05:17:55.822Z,100391.28
2023-01-05T05:20:22.678Z,100384.47
2023-01-05T05:22:49.353Z,100367.03
2023-01-05T05:25:16.273Z,100371.06
2023-01-05T05:27:43.035Z,100374.28
2023-01-05T05:30:10.272Z,100366.91
2023-01-05T05:32:42.366Z,100362.41
2023-01-05T05:35:11.126Z,100348.38
2023-01-05T05:37:37.883Z,100329.28
2023-01-05T05:40:05.155Z,100316.31
2023-01-05T05:42:31.981Z,100331.78
2023-01-05T05:44:58.736Z,100333.94
2023-01-05T05:47:25.426Z,100351.81
2023-01-05T05:49:52.256Z,100350.50
2023-01-05T05:52:18.946Z,100353.88
2023-01-05T05:54:45.745Z,100343.06
2023-01-05T05:57:12.523Z,100354.53
2023-01-05T05:59:39.218Z,100345.44
2023-01-05T06:02:06.150Z,100359.81
2023-01-05T06:04:33.010Z,100365.34
2023-01-05T06:06:59.688Z,100358.84
2023-01-05T06:09:26.786Z,100382.56
2023-01-05T06:11:53.508Z,100365.34
2023-01-05T06:14:20.163Z,100381.47
2023-01-05T06:16:47.000Z,100398.38
2023-01-05T06:19:13.805Z,100387.31
2023-01-05T06:21:40.619Z,100405.13
2023-01-05T06:24:07.597Z,100397.84
2023-01-05T06:26:34.283Z,100393.31
2023-01-05T06:29:01.089Z,100388.75
2023-01-05T06:31:27.915Z,100409.53
2023-01-05T06:33:54.861Z,100376.00
2023-01-05T06:36:21.645Z,100377.09
2023-01-05T06:38:48.457Z,100389.00
2023-01-05T06:41:15.251Z,100399.06
2023-01-05T06:43:43.037Z,100415.72
2023-01-05T06:46:12.941Z,100428.72
2023-01-05T06:48:39.921Z,100433.78
2023-01-05T06:51:06.830Z,100453.41
2023-01-05T06:53:33.764Z,100490.84
2023-01-05T06:56:00.661Z,100500.41
2023-01-05T06:58:27.489Z,100519.13
2023-01-05T07:00:54.910Z,100518.78
2023-01-05T07:03:23.749Z,100554.13
2023-01-05T07:05:52.026Z,100559.78
2023-01-05T07:08:18.745Z,100587.91
2023-01-05T07:10:45.485Z,100603.03
2023-01-05T07:13:12.288Z,100611.44
2023-01-05T07:15:39.005Z,100628.09
2023-01-05T07:18:05.794Z,100651.25
2023-01-05T07:20:32.510Z,100650.31
2023-01-05T07:22:59.282Z,100674.91
2023-01-05T07:25:31.343Z,100703.34
2023-01-05T07:27:58.523Z,100708.03
2023-01-05T07:30:25.282Z,100718.63
2023-01-05T07:32:52.040Z,100726.25
2023-01-05T07:35:18.865Z,100748.53
2023-01-05T07:37:45.487Z,100760.81
2023-01-05T07:40:12.627Z,100765.31
2023-01-05T07:42:39.307Z,100761.13
2023-01-05T07:45:06.826Z,100785.53
2023-01-05T07:47:33.564Z,100798.44
2023-01-05T07:50:00.241Z,100797.56
2023-01-05T07:52:28.873Z,100815.69
2023-01-05T07:54:55.525Z,100833.91
2023-01-05T07:57:22.299Z,100841.66
2023-01-05T07:59:48.941Z,100841.34
2023-01-05T08:02:15.687Z,100863.25
2023-01-05T08:04:42.635Z,100873.88
2023-01-05T08:07:11.305Z,100884.78
2023-01-05T08:09:57.330Z,100884.78
2023-01-05T08:12:24.080Z,100908.94
2023-01-05T08:14:51.874Z,100928.16
2023-01-05T08:17:18.506Z,100948.97
2023-01-05T08:19:45.159Z,100956.09
2023-01-05T08:22:11.950Z,100966.13
2023-01-05T08:24:38.652Z,100967.47
2023-01-05T08:27:05.424Z,100982.66
2023-01-05T08:29:32.133Z,100987.53
2023-01-05T08:31:58.858Z,100990.72
2023-01-05T08:34:30.051Z,100993.41
2023-01-05T08:36:59.683Z,101023.88
2023-01-05T08:39:26.325Z,101029.22
2023-01-05T08:41:56.241Z,101032.63
2023-01-05T08:44:27.380Z,101040.63
2023-01-05T08:46:54.046Z,101050.50
2023-01-05T08:49:20.819Z,101069.81
2023-01-05T08:51:47.507Z,101066.38
2023-01-05T08:54:14.194Z,101071.75
2023-01-05T08:56:41.100Z,101080.34
2023-01-05T08:59:08.704Z,101088.50
2023-01-05T09:01:36.873Z,101100.13
2023-01-05T09:04:03.815Z,101093.91
2023-01-05T09:06:30.636Z,101110.84
2023-01-05T09:08:57.377Z,101116.91
2023-01-05T09:11:26.162Z,101136.03
2023-01-05T09:14:00.543Z,101139.78
2023-01-05T09:19:17.122Z,101158.41
2023-01-05T09:21:44.685Z,101167.25
2023-01-05T09:24:13.021Z,101178.16
2023-01-05T09:26:41.396Z,101188.56
2023-01-05T09:29:09.090Z,101187.03
2023-01-05T09:31:35.747Z,101206.75
2023-01-05T09:34:02.464Z,101207.41
2023-01-05T09:36:29.214Z,101200.28
2023-01-05T09:38:59.262Z,101209.25
2023-01-05T09:41:35.123Z,101223.56
2023-01-05T09:44:11.917Z,101213.28
2023-01-05T09:46:42.999Z,101234.81
2023-01-05T09:49:19.038Z,101241.63
2023-01-05T09:51:45.704Z,101238.25
2023-01-05T09:54:19.361Z,101235.81
2023-01-05T10:00:00.183Z,101236.56
2023-01-05T10:02:47.063Z,101240.88
2023-01-05T10:05:14.709Z,101246.25
2023-01-05T10:07:50.088Z,101246.50
2023-01-05T10:10:32.195Z,101251.31
2023-01-05T10:13:05.462Z,101250.78
2023-01-05T10:15:55.703Z,101266.72
2023-01-05T10:18:26.497Z,101267.41
2023-01-05T10:21:11.372Z,101277.59
2023-01-05T10:23:59.203Z,101284.31
2023-01-05T10:27:14.365Z,101291.50
2023-01-05T10:29:47.429Z,101285.06
2023-01-05T10:32:30.330Z,101298.69
2023-01-05T10:35:58.911Z,101301.81
2023-01-05T10:38:28.094Z,101304.44
2023-01-05T10:40:54.696Z,101300.25
2023-01-05T10:43:34.074Z,101299.50
2023-01-05T10:46:31.096Z,101294.19
2023-01-05T10:48:49.412Z,101293.53
2023-01-05T10:51:16.108Z,101306.91
2023-01-05T10:53:44.332Z,101307.66
2023-01-05T10:56:23.088Z,101302.72
2023-01-05T10:59:07.403Z,101313.78
2023-01-05T11:01:36.672Z,101315.75
2023-01-05T11:04:35.330Z,101324.69
2023-01-05T11:07:05.495Z,101339.00
2023-01-05T11:09:32.377Z,101344.47
2023-01-05T11:12:03.544Z,101341.16
2023-01-05T11:14:35.591Z,101352.00
2023-01-05T11:17:06.229Z,101354.22
2023-01-05T11:19:37.226Z,101354.22
2023-01-05T11:22:03.922Z,101351.09
2023-01-05T11:24:35.559Z,101357.78
2023-01-05T11:27:23.932Z,101364.56
2023-01-05T11:30:15.792Z,101367.28
2023-01-05T11:32:43.842Z,101362.06
2023-01-05T11:35:37.339Z,101376.66
2023-01-05T11:38:04.365Z,101384.69
2023-01-05T11:40:34.541Z,101391.59
2023-01-05T11:43:10.626Z,101396.03
2023-01-05T11:45:45.658Z,101404.53
2023-01-05T11:48:20.737Z,101393.28
2023-01-05T11:50:50.477Z,101401.28
2023-01-05T11:53:40.011Z,101412.19
2023-01-05T11:56:24.138Z,101414.59
2023-01-05T11:58:55.861Z,101415.59
2023-01-05T12:01:28.549Z,101421.25
2023-01-05T12:04:05.184Z,101421.94
2023-01-05T12:07:03.243Z,101426.47
2023-01-05T12:09:36.359Z,101427.41
2023-01-05T12:12:25.859Z,101437.53
2023-01-05T12:15:37.444Z,101430.09
2023-01-05T12:18:20.401Z,101429.50
2023-01-05T12:21:15.281Z,101444.53
2023-01-05T12:23:54.210Z,101448.91
2023-01-05T12:26:29.410Z,101450.59
2023-01-05T12:30:24.582Z,101454.03
2023-01-05T12:35:08.503Z,101439.94
2023-01-05T12:37:35.123Z,101450.66
2023-01-05T12:40:31.145Z,101447.16
2023-01-05T12:43:06.021Z,101464.91
2023-01-05T12:46:03.064Z,101473.97
2023-01-05T12:48:45.870Z,101468.31
2023-01-05T12:51:35.821Z,101466.91
2023-01-05T12:54:12.085Z,101466.13
2023-01-05T12:56:50.408Z,101469.47
2023-01-05T12:59:37.853Z,101480.31
2023-01-05T13:02:07.758Z,101481.13
2023-01-05T13:04:49.459Z,101484.63
2023-01-05T13:07:25.259Z,101478.38
2023-01-05T13:10:06.133Z,101485.53
2023-01-05T13:12:34.384Z,101491.31
2023-01-05T13:15:16.339Z,101482.34
2023-01-05T13:17:47.480Z,101477.22
2023-01-05T13:20:20.156Z,101479.38
2023-01-05T13:22:49.402Z,101491.28
2023-01-05T13:25:22.256Z,101493.06
2023-01-05T13:27:48.988Z,101491.50
2023-01-05T13:30:31.139Z,101504.09
2023-01-05T13:32:57.821Z,101515.50
2023-01-05T13:35:48.843Z,101522.97
2023-01-05T13:38:27.498Z,101540.31
2023-01-05T13:41:09.891Z,101537.88
2023-01-05T13:43:54.644Z,101543.38
2023-01-05T13:46:26.693Z,101552.28
2023-01-05T13:49:31.055Z,101564.00
2023-01-05T13:52:06.106Z,101564.56
2023-01-05T13:55:01.359Z,101568.66
2023-01-05T13:57:35.189Z,101570.94
2023-01-05T14:00:10.390Z,101568.28
2023-01-05T14:02:43.573Z,101574.28
2023-01-05T14:05:32.841Z,101579.25
2023-01-05T14:08:03.209Z,101591.00
2023-01-05T14:10:36.189Z,101594.84
2023-01-05T14:13:04.079Z,101605.88
2023-01-05T14:15:41.866Z,101615.88
2023-01-05T14:18:30.728Z,101628.69
2023-01-05T14:21:09.564Z,101628.81
2023-01-05T14:23:36.298Z,101631.59
2023-01-05T14:26:06.470Z,101621.81
2023-01-05T14:28:36.016Z,101628.22
2023-01-05T14:31:14.939Z,101625.66
2023-01-05T14:33:57.555Z,101626.91
2023-01-05T14:36:42.688Z,101643.34
2023-01-05T14:39:18.691Z,101655.94
2023-01-05T14:41:56.208Z,101662.16
2023-01-05T14:44:29.920Z,101658.78
2023-01-05T14:46:57.741Z,101660.66
2023-01-05T14:49:40.632Z,101653.69
2023-01-05T14:52:16.704Z,101657.50
2023-01-05T14:54:43.317Z,101658.66
2023-01-05T14:57:25.322Z,101658.69
2023-01-05T15:00:03.642Z,101666.84
2023-01-05T15:02:34.818Z,101685.00
2023-01-05T15:05:07.567Z,101672.97
2023-01-05T15:08:18.252Z,101677.19
2023-01-05T15:10:57.043Z,101673.34
2023-01-05T15:13:38.940Z,101657.91
2023-01-05T15:16:05.515Z,101663.81
2023-01-05T15:18:38.186Z,101657.25
2023-01-05T15:21:49.948Z,101651.88
2023-01-05T15:24:22.565Z,101647.16
2023-01-05T15:27:05.910Z,101654.34
2023-01-05T15:30:04.905Z,101653.75
2023-01-05T15:32:36.651Z,101661.94
2023-01-05T15:35:19.184Z,101670.00
2023-01-05T15:37:48.560Z,101668.84
2023-01-05T15:40:25.386Z,101666.88
2023-01-05T15:42:59.399Z,101663.19
2023-01-05T15:45:30.185Z,101659.53
2023-01-05T15:48:00.488Z,101640.72
2023-01-05T15:50:34.149Z,101649.88
2023-01-05T15:53:02.001Z,101659.91
2023-01-05T15:55:30.219Z,101654.56
2023-01-05T15:57:59.852Z,101649.19
2023-01-05T16:00:30.236Z,101645.56
2023-01-05T16:02:57.268Z,101643.88
2023-01-05T16:05:27.019Z,101645.22
2023-01-05T16:07:57.621Z,101650.88
2023-01-05T16:10:44.265Z,101642.91
2023-01-05T16:13:16.761Z,101648.25
2023-01-05T16:15:50.282Z,101644.63
2023-01-05T16:18:22.983Z,101637.53
2023-01-05T16:20:52.947Z,101638.41
2023-01-05T16:23:38.783Z,101633.84
2023-01-05T16:26:06.390Z,101624.84
2023-01-05T16:28:33.135Z,101619.81
2023-01-05T16:31:00.013Z,101619.38
2023-01-05T16:33:39.285Z,101621.84
2023-01-05T16:36:19.138Z,101610.38
2023-01-05T16:38:46.174Z,101604.38
2023-01-05T16:41:19.879Z,101619.50
2023-01-05T16:43:53.976Z,101617.91
2023-01-05T16:46:21.374Z,101621.44
2023-01-05T16:48:50.030Z,101622.41
2023-01-05T16:51:18.413Z,101621.63
2023-01-05T16:53:48.005Z,101621.84
2023-01-05T16:56:41.782Z,101620.22
2023-01-05T16:59:33.552Z,101609.56
2023-01-05T17:02:00.688Z,101603.41
2023-01-05T17:04:27.457Z,101614.25
2023-01-05T17:06:54.297Z,101608.06
2023-01-05T17:09:34.331Z,101601.91
2023-01-05T17:12:00.989Z,101610.22
2023-01-05T17:14:28.620Z,101603.72
2023-01-05T17:16:55.470Z,101588.91
2023-01-05T17:19:22.493Z,101587.75
2023-01-05T17:21:59.114Z,101588.91
2023-01-05T17:24:27.558Z,101578.56
2023-01-05T17:26:54.652Z,101562.00
2023-01-05T17:29:32.404Z,101552.09
2023-01-05T17:31:59.249Z,101548.69
2023-01-05T17:34:25.997Z,101552.31
2023-01-05T17:36:57.261Z,101542.47
2023-01-05T17:39:24.271Z,101553.06
2023-01-05T17:41:51.274Z,101544.56
2023-01-05T17:44:18.309Z,101538.19
2023-01-05T17:46:47.458Z,101531.00
2023-01-05T17:49:17.012Z,101536.06
2023-01-05T17:51:44.307Z,101531.69
2023-01-05T17:54:13.736Z,101516.19
2023-01-05T17:56:40.558Z,101508.81
2023-01-05T17:59:07.385Z,101503.28
2023-01-05T18:01:34.301Z,101489.47
2023-01-05T18:04:01.577Z,101489.25
2023-01-05T18:06:28.347Z,101483.78
2023-01-05T18:08:55.114Z,101488.47
2023-01-05T18:11:21.879Z,101484.09
2023-01-05T18:13:48.592Z,101472.28
2023-01-05T18:16:15.593Z,101461.22
2023-01-05T18:18:42.441Z,101462.34
2023-01-05T18:21:09.090Z,101471.22
2023-01-05T18:23:36.241Z,101478.66
2023-01-05T18:26:05.539Z,101499.53
2023-01-05T18:28:32.283Z,101505.97
2023-01-05T18:31:00.953Z,101482.28
2023-01-05T18:33:27.997Z,101484.59
2023-01-05T18:38:21.990Z,101484.69
2023-01-05T18:40:50.145Z,101482.81
2023-01-05T18:43:17.420Z,101468.88
2023-01-05T18:45:44.340Z,101482.72
2023-01-05T18:48:11.301Z,101472.09
2023-01-05T18:50:44.448Z,101461.94
2023-01-05T18:53:11.736Z,101460.34
2023-01-05T18:55:42.437Z,101461.03
2023-01-05T18:58:11.185Z,101462.63
2023-01-05T19:00:42.718Z,101456.22
2023-01-05T19:03:10.229Z,101461.25
2023-01-05T19:05:41.517Z,101454.47
2023-01-05T19:08:09.571Z,101463.50
2023-01-05T19:10:37.624Z,101462.63
2023-01-05T19:13:05.157Z,101456.50
2023-01-05T19:15:36.669Z,101446.44
2023-01-05T19:18:03.835Z,101456.63
2023-01-05T19:20:31.830Z,101446.19
2023-01-05T19:22:59.749Z,101448.31
2023-01-05T19:25:26.480Z,101448.31
2023-01-05T19:27:53.231Z,101427.06
2023-01-05T19:30:22.071Z,101437.97
2023-01-05T19:32:48.975Z,101438.53
2023-01-05T19:35:15.782Z,101440.03
2023-01-05T19:37:42.591Z,101442.47
2023-01-05T19:40:10.522Z,101441.66
2023-01-05T19:42:37.440Z,101436.03
2023-01-05T19:45:04.854Z,101428.56
2023-01-05T19:47:31.697Z,101434.28
2023-01-05T19:49:58.500Z,101429.16
2023-01-05T19:52:29.667Z,101432.22
2023-01-05T19:54:56.653Z,101422.03
2023-01-05T19:57:23.690Z,101435.84
2023-01-05T19:59:51.412Z,101428.41
2023-01-05T20:02:18.437Z,101436.19
2023-01-05T20:04:46.619Z,101440.47
2023-01-05T20:07:13.416Z,101430.66
2023-01-05T20:09:43.286Z,101423.91
2023-01-05T20:12:14.951Z,101426.53
2023-01-05T20:14:42.957Z,101421.16
2023-01-05T20:17:11.354Z,101419.97
2023-01-05T20:19:39.396Z,101407.31
2023-01-05T20:22:13.881Z,101416.88
2023-01-05T20:24:42.309Z,101400.28
2023-01-05T20:27:11.881Z,101417.44
2023-01-05T20:29:40.432Z,101407.41
2023-01-05T20:32:10.879Z,101410.44
2023-01-05T20:34:39.517Z,101411.53
2023-01-05T20:37:08.266Z,101410.88
2023-01-05T20:39:37.111Z,101409.03
2023-01-05T20:42:08.112Z,101415.94
2023-01-05T20:44:38.141Z,101418.06
2023-01-05T20:47:06.629Z,101429.81
2023-01-05T20:49:35.464Z,101429.28
2023-01-05T20:52:02.707Z,101431.38
2023-01-05T20:54:29.401Z,101432.28
2023-01-05T20:56:56.109Z,101438.72
2023-01-05T20:59:30.190Z,101437.72
2023-01-05T21:01:58.360Z,101438.59
2023-01-05T21:04:26.127Z,101430.41
2023-01-05T21:06:59.290Z,101430.47
2023-01-05T21:09:29.281Z,101429.28
2023-01-05T21:11:56.940Z,101441.22
2023-01-05T21:14:23.754Z,101433.25
2023-01-05T21:16:52.638Z,101436.16
2023-01-05T21:19:22.001Z,101434.09
2023-01-05T21:21:54.707Z,101442.38
2023-01-05T21:24:22.086Z,101435.84
2023-01-05T21:26:48.967Z,101418.75
2023-01-05T21:29:17.081Z,101416.84
2023-01-05T21:31:43.873Z,101409.81
2023-01-05T21:34:11.735Z,101398.41
2023-01-05T21:36:41.652Z,101399.09
2023-01-05T21:39:11.313Z,101394.94
2023-01-05T21:41:56.452Z,101406.41
2023-01-05T21:44:23.274Z,101395.81
2023-01-05T21:46:50.441Z,101391.88
2023-01-05T21:49:18.134Z,101389.19
2023-01-05T21:52:03.885Z,101385.78
2023-01-05T21:54:49.553Z,101387.28
2023-01-05T21:57:16.583Z,101381.63
2023-01-05T21:59:43.527Z,101385.53
2023-01-05T22:02:11.593Z,101386.22
2023-01-05T22:04:38.508Z,101378.69
2023-01-05T22:07:07.319Z,101385.41
2023-01-05T22:09:37.510Z,101371.47
2023-01-05T22:12:08.745Z,101355.56
2023-01-05T22:14:37.454Z,101354.00
2023-01-05T22:17:06.076Z,101349.16
2023-01-05T22:19:32.823Z,101363.09
2023-01-05T22:21:59.552Z,101357.47
2023-01-05T22:24:26.311Z,101352.56
2023-01-05T22:26:53.091Z,101339.09
2023-01-05T22:29:19.932Z,101341.81
2023-01-05T22:31:47.266Z,101345.34
2023-01-05T22:34:13.979Z,101342.63
2023-01-05T22:36:41.064Z,101335.88
2023-01-05T22:39:07.902Z,101337.00
2023-01-05T22:41:36.270Z,101340.50
2023-01-05T22:44:04.267Z,101331.56
2023-01-05T22:46:31.625Z,101323.13
2023-01-05T22:48:59.339Z,101324.72
2023-01-05T22:51:36.151Z,101319.47
2023-01-05T22:54:04.089Z,101308.53
2023-01-05T22:56:32.517Z,101311.25
2023-01-05T22:58:59.929Z,101293.94
2023-01-05T23:01:38.969Z,101306.03
2023-01-05T23:04:07.098Z,101298.53
2023-01-05T23:06:33.923Z,101289.44
2023-01-05T23:09:01.052Z,101286.47
2023-01-05T23:11:38.828Z,101284.91
2023-01-05T23:14:08.023Z,101281.75
2023-01-05T23:16:35.674Z,101280.41
2023-01-05T23:19:05.097Z,101277.34
2023-01-05T23:21:32.562Z,101271.44
2023-01-05T23:23:59.785Z,101265.34
2023-01-05T23:26:27.491Z,101255.22
2023-01-05T23:28:54.764Z,101256.97
2023-01-05T23:31:24.510Z,101251.44
2023-01-05T23:33:51.730Z,101248.94
2023-01-05T23:36:20.328Z,101257.56
2023-01-05T23:38:47.924Z,101243.66
2023-01-05T23:41:16.535Z,101246.50
2023-01-05T23:43:45.174Z,101241.47
2023-01-05T23:46:20.098Z,101228.00
2023-01-05T23:48:47.775Z,101211.50
2023-01-05T23:51:16.518Z,101221.88
2023-01-05T23:53:46.403Z,101205.28
2023-01-05T23:56:26.177Z,101185.13
2023-01-05T23:58:59.679Z,101182.13
